Time;durP1;ratioP1;P1;durP2;ratioP2;P2;SDS_P1;SDS_P2;PMS_P1;PMS_P2;Temp;Humidity;BMP_temperature;BMP_pressure;BME280_temperature;BME280_humidity;BME280_pressure;Samples;Min_cycle;Max_cycle;Signal;HPM_P1;HPM_P2
2023/07/01 00:03:57;;;;;;;3.33;1.50;;;;;;;18.11;71.91;96385.25;10313448;28;20026;-30
2023/07/01 00:08:57;;;;;;;4.45;2.00;;;;;;;18.11;72.04;96386.94;10317730;28;20046;-29
2023/07/01 00:13:58;;;;;;;3.42;2.10;;;;;;;18.11;72.18;96380.19;10316171;28;20357;-30
2023/07/01 00:18:58;;;;;;;12.00;2.37;;;;;;;18.03;72.63;96381.06;10312865;28;20449;-30
2023/07/01 00:23:59;;;;;;;7.68;2.20;;;;;;;18.16;72.36;96378.47;10324024;28;20499;-30
2023/07/01 00:28:59;;;;;;;4.28;2.22;;;;;;;18.15;72.38;96376.78;10308618;28;20113;-30
2023/07/01 00:33:59;;;;;;;2.00;1.80;;;;;;;18.06;72.50;96371.75;10304782;28;20038;-30
2023/07/01 00:39:03;;;;;;;4.23;2.07;;;;;;;18.18;72.08;96365.78;10312349;28;20050;-30
2023/07/01 00:44:04;;;;;;;3.30;2.25;;;;;;;18.15;72.50;96365.81;10298177;28;20305;-30
2023/07/01 00:49:04;;;;;;;2.22;1.75;;;;;;;18.08;72.71;96359.09;10305257;28;20031;-30
2023/07/01 00:54:06;;;;;;;3.87;2.17;;;;;;;18.08;72.46;96357.38;10296780;28;20074;-30
2023/07/01 00:59:06;;;;;;;3.95;2.33;;;;;;;18.13;72.44;96359.91;10305164;28;20085;-31
2023/07/01 01:04:15;;;;;;;2.85;2.20;;;;;;;18.06;72.63;96358.22;10313705;28;20081;-31
2023/07/01 01:09:26;;;;;;;3.53;1.95;;;;;;;17.99;72.98;96354.06;10314579;28;20054;-30
2023/07/01 01:14:28;;;;;;;3.83;1.98;;;;;;;17.99;73.00;96354.06;10311167;28;20035;-30
2023/07/01 01:19:37;;;;;;;4.60;2.25;;;;;;;17.96;72.82;96356.59;10303909;28;20491;-30
2023/07/01 01:24:42;;;;;;;3.97;2.10;;;;;;;17.99;73.03;96352.34;10307552;28;20034;-30
2023/07/01 01:29:42;;;;;;;3.78;2.33;;;;;;;17.93;73.22;96349.84;10307152;28;20129;-30
2023/07/01 01:34:42;;;;;;;4.30;1.90;;;;;;;17.96;73.28;96349.00;10311913;28;20030;-30
2023/07/01 01:39:46;;;;;;;3.88;1.90;;;;;;;17.98;73.14;96342.25;10309433;28;20426;-31
2023/07/01 01:44:52;;;;;;;5.43;2.22;;;;;;;17.89;73.40;96343.13;10292136;28;20046;-31
2023/07/01 01:49:58;;;;;;;4.25;2.17;;;;;;;17.89;73.27;96339.72;10310954;28;20034;-30
2023/07/01 01:54:59;;;;;;;3.38;2.00;;;;;;;17.88;73.31;96338.03;10313971;28;20040;-31
2023/07/01 01:59:59;;;;;;;3.20;1.98;;;;;;;17.99;73.10;96328.72;10309287;28;20038;-30
2023/07/01 02:05:00;;;;;;;4.23;2.47;;;;;;;17.96;73.20;96334.66;10298431;28;20034;-31
2023/07/01 02:10:00;;;;;;;2.07;1.93;;;;;;;18.02;72.90;96334.63;10308866;28;20042;-30
2023/07/01 02:15:00;;;;;;;3.25;2.10;;;;;;;17.99;72.90;96328.72;10326164;28;20045;-30
2023/07/01 02:20:03;;;;;;;3.63;2.40;;;;;;;17.94;73.10;96325.38;10302244;28;20038;-30
2023/07/01 02:25:04;;;;;;;3.92;2.58;;;;;;;18.03;72.92;96325.31;10302368;28;20066;-31
2023/07/01 02:30:06;;;;;;;4.72;2.50;;;;;;;17.97;73.21;96322.81;10301706;28;20062;-30
2023/07/01 02:35:07;;;;;;;2.85;2.40;;;;;;;17.95;72.77;96310.19;10291385;28;20436;-30
2023/07/01 02:40:08;;;;;;;2.92;2.35;;;;;;;18.00;72.59;96321.09;10309051;28;20044;-30
2023/07/01 02:45:10;;;;;;;4.05;2.70;;;;;;;18.03;72.81;96310.13;10308358;28;20070;-31
2023/07/01 02:50:10;;;;;;;6.75;2.85;;;;;;;17.96;72.92;96319.44;10316989;28;20542;-30
2023/07/01 02:55:11;;;;;;;2.30;2.10;;;;;;;17.95;73.17;96314.38;10301171;28;20549;-31
2023/07/01 03:00:13;;;;;;;2.87;2.20;;;;;;;17.96;72.94;96313.53;10316995;28;20035;-30
2023/07/01 03:05:14;;;;;;;4.00;2.00;;;;;;;18.04;72.39;96312.66;10310591;28;20034;-31
2023/07/01 03:10:14;;;;;;;4.30;2.30;;;;;;;18.01;72.78;96321.97;10317840;28;20042;-30
2023/07/01 03:15:15;;;;;;;4.03;2.40;;;;;;;17.97;72.71;96326.19;10317231;28;20293;-30
2023/07/01 03:20:24;;;;;;;4.03;2.50;;;;;;;17.90;73.28;96336.38;10300298;28;20045;-30
2023/07/01 03:25:27;;;;;;;4.03;2.38;;;;;;;17.85;73.74;96330.47;10324258;28;20041;-30
2023/07/01 03:30:30;;;;;;;5.88;2.45;;;;;;;17.89;73.40;96327.06;10284590;28;20041;-30
2023/07/01 03:35:31;;;;;;;2.75;2.25;;;;;;;17.92;73.30;96322.84;10305343;28;20038;-29
2023/07/01 03:40:34;;;;;;;3.38;2.38;;;;;;;17.83;73.77;96315.28;10285955;28;20058;-30
2023/07/01 03:45:37;;;;;;;6.13;2.38;;;;;;;17.90;72.94;96308.50;10309079;28;20053;-30
2023/07/01 03:50:37;;;;;;;3.92;2.30;;;;;;;17.77;73.27;96296.75;10309085;28;20038;-30
2023/07/01 03:55:37;;;;;;;2.90;2.23;;;;;;;17.84;72.95;96313.59;10301692;28;20046;-30
2023/07/01 04:00:38;;;;;;;4.07;2.13;;;;;;;17.74;73.01;96306.88;10329411;28;20301;-29
2023/07/01 04:05:38;;;;;;;5.10;1.83;;;;;;;17.77;73.36;96317.00;10300242;28;20046;-29
2023/07/01 04:10:38;;;;;;;7.67;2.70;;;;;;;17.73;73.28;96310.28;10310950;28;20097;-30
2023/07/01 04:15:39;;;;;;;3.30;2.47;;;;;;;17.72;73.65;96313.63;10295055;28;20502;-30
2023/07/01 04:20:40;;;;;;;3.97;2.57;;;;;;;17.71;73.46;96311.94;10307804;28;20344;-30
2023/07/01 04:25:40;;;;;;;7.80;2.92;;;;;;;17.64;73.57;96317.88;10312930;28;20061;-30
2023/07/01 04:30:40;;;;;;;6.17;2.30;;;;;;;17.68;73.33;96322.09;10315336;28;20043;-30
2023/07/01 04:35:41;;;;;;;2.63;2.20;;;;;;;17.56;73.95;96324.69;10322298;28;20042;-30
2023/07/01 04:40:41;;;;;;;5.27;2.03;;;;;;;17.60;73.56;96318.75;10322769;28;20290;-30
2023/07/01 04:45:42;;;;;;;4.57;2.10;;;;;;;17.55;73.59;96321.28;10314996;28;20314;-29
2023/07/01 04:50:43;;;;;;;4.07;2.05;;;;;;;17.52;74.12;96320.44;10300419;28;20038;-30
2023/07/01 04:55:43;;;;;;;2.40;2.20;;;;;;;17.51;73.45;96319.59;10306338;28;20530;-31
2023/07/01 05:00:44;;;;;;;3.72;2.58;;;;;;;17.58;73.43;96302.72;10314389;28;20465;-31
2023/07/01 05:05:45;;;;;;;4.65;2.22;;;;;;;17.46;73.55;96298.53;10305238;28;20085;-30
2023/07/01 05:10:45;;;;;;;3.80;2.30;;;;;;;17.41;74.00;96301.94;10317715;28;20033;-30
2023/07/01 05:15:46;;;;;;;3.97;2.53;;;;;;;17.57;73.87;96301.03;10305725;28;20487;-30
2023/07/01 05:20:46;;;;;;;4.47;2.08;;;;;;;17.50;73.37;96297.66;10310517;28;20054;-30
2023/07/01 05:25:47;;;;;;;2.15;1.83;;;;;;;17.63;73.12;96293.41;10300281;28;20038;-30
2023/07/01 05:30:47;;;;;;;2.72;2.03;;;;;;;17.43;73.49;96301.09;10317776;28;20130;-29
2023/07/01 05:35:49;;;;;;;4.83;2.10;;;;;;;17.66;72.99;96299.31;10307018;28;20034;-30
2023/07/01 05:40:50;;;;;;;3.20;2.17;;;;;;;17.81;73.39;96294.19;10317138;28;20039;-30
2023/07/01 05:45:50;;;;;;;4.27;2.57;;;;;;;17.84;73.81;96293.34;10303378;28;20041;-30
2023/07/01 05:50:50;;;;;;;4.03;2.60;;;;;;;18.04;72.62;96296.59;10299774;28;20045;-30
2023/07/01 05:55:51;;;;;;;6.10;2.57;;;;;;;17.94;73.59;96289.91;10307533;28;20035;-31
2023/07/01 06:00:51;;;;;;;5.47;2.90;;;;;;;17.97;73.91;96287.34;10299509;28;20042;-29
2023/07/01 06:05:51;;;;;;;3.93;2.80;;;;;;;17.90;74.07;96294.16;10302438;28;20038;-30
2023/07/01 06:10:52;;;;;;;6.27;3.33;;;;;;;17.94;74.03;96300.91;10308108;28;20411;-30
2023/07/01 06:15:52;;;;;;;10.48;3.20;;;;;;;17.96;74.00;96298.34;10302659;28;20037;-30
2023/07/01 06:20:53;;;;;;;4.43;3.23;;;;;;;18.03;74.98;96305.06;10300668;28;20037;-30
2023/07/01 06:25:53;;;;;;;3.93;3.47;;;;;;;18.14;73.99;96311.75;10332736;28;20093;-30
2023/07/01 06:30:54;;;;;;;3.97;3.17;;;;;;;18.11;74.15;96303.34;10304687;28;20778;-30
2023/07/01 06:35:54;;;;;;;7.25;3.40;;;;;;;18.22;73.40;96306.63;10317596;28;20042;-30
2023/07/01 06:40:55;;;;;;;3.63;3.13;;;;;;;18.38;71.07;96298.13;10331375;28;20113;-30
2023/07/01 06:45:55;;;;;;;7.33;3.03;;;;;;;18.35;70.75;96305.75;10330918;28;20069;-30
2023/07/01 06:50:55;;;;;;;4.68;2.33;;;;;;;18.68;69.30;96313.16;10308300;28;20035;-30
2023/07/01 06:55:56;;;;;;;6.60;2.70;;;;;;;18.86;68.79;96302.84;10328816;28;20081;-30
2023/07/01 07:00:56;;;;;;;7.87;2.50;;;;;;;19.29;67.05;96294.03;10306338;28;20027;-30
2023/07/01 07:05:56;;;;;;;2.50;1.97;;;;;;;18.71;67.72;96292.81;10318415;28;20511;-30
2023/07/01 07:10:57;;;;;;;3.90;1.70;;;;;;;18.65;66.92;96288.66;10325846;28;20427;-30
2023/07/01 07:15:58;;;;;;;5.95;2.10;;;;;;;18.73;65.94;96280.97;10304608;28;20132;-31
2023/07/01 07:20:58;;;;;;;3.17;1.60;;;;;;;18.86;64.77;96277.50;10313743;28;20155;-31
2023/07/01 07:26:01;;;;;;;39.83;28.53;;;;;;;19.31;63.95;96269.47;10300450;28;20034;-31
2023/07/01 07:31:01;;;;;;;8.38;7.53;;;;;;;19.24;64.20;96275.50;10312173;28;20045;-30
2023/07/01 07:36:01;;;;;;;8.83;2.90;;;;;;;19.17;64.63;96268.75;10318173;28;20574;-30
2023/07/01 07:41:03;;;;;;;4.90;1.73;;;;;;;18.97;62.16;96260.47;10302385;28;20046;-29
2023/07/01 07:46:03;;;;;;;2.78;1.73;;;;;;;19.17;61.89;96259.44;10316945;28;20038;-29
2023/07/01 07:51:03;;;;;;;4.10;1.40;;;;;;;19.38;60.57;96253.31;10310021;28;20047;-30
2023/07/01 07:56:04;;;;;;;17.03;2.60;;;;;;;19.33;60.85;96252.56;10318401;28;20022;-30
2023/07/01 08:01:04;;;;;;;5.78;1.60;;;;;;;19.46;59.48;96252.41;10310246;28;20592;-29
2023/07/01 08:06:07;;;;;;;5.07;1.20;;;;;;;19.69;55.83;96241.97;10312731;28;20034;-31
2023/07/01 08:11:07;;;;;;;3.75;1.15;;;;;;;19.78;54.26;96244.38;10302452;28;20039;-31
2023/07/01 08:16:08;;;;;;;4.87;1.27;;;;;;;19.88;53.60;96235.78;10307984;28;20039;-30
2023/07/01 08:21:08;;;;;;;2.75;1.20;;;;;;;19.87;54.58;96237.50;10303139;28;20468;-30
2023/07/01 08:26:08;;;;;;;6.27;1.20;;;;;;;19.98;53.65;96232.25;10315296;28;20495;-30
2023/07/01 08:31:10;;;;;;;5.07;1.40;;;;;;;19.97;53.66;96230.56;10313268;28;20290;-31
2023/07/01 08:36:10;;;;;;;2.85;1.88;;;;;;;20.01;52.76;96219.53;10309300;28;20034;-31
2023/07/01 08:41:14;;;;;;;5.77;1.30;;;;;;;20.04;52.26;96211.84;10314928;28;20034;-30
2023/07/01 08:46:18;;;;;;;7.68;1.40;;;;;;;20.08;53.59;96200.81;10316203;28;20349;-30
2023/07/01 08:51:26;;;;;;;3.30;1.08;;;;;;;20.11;53.15;96200.78;10317353;28;20125;-30
2023/07/01 08:56:26;;;;;;;11.15;1.80;;;;;;;20.18;51.62;96204.91;10311936;28;20038;-30
2023/07/01 09:01:28;;;;;;;8.43;4.23;;;;;;;19.99;55.67;96203.44;10318737;28;20038;-31
2023/07/01 09:06:28;;;;;;;3.10;1.83;;;;;;;20.14;51.78;96195.63;10313219;28;20412;-30
2023/07/01 09:11:28;;;;;;;2.23;1.37;;;;;;;20.22;50.07;96186.19;10307069;28;20050;-31
2023/07/01 09:16:31;;;;;;;4.07;1.20;;;;;;;20.26;50.46;96192.94;10310883;28;20319;-30
2023/07/01 09:21:32;;;;;;;5.40;1.42;;;;;;;20.26;49.52;96193.75;10317654;28;20064;-30
2023/07/01 09:26:33;;;;;;;3.97;1.17;;;;;;;20.15;51.54;96184.59;10317286;28;20080;-31
2023/07/01 09:31:43;;;;;;;5.60;1.80;;;;;;;19.87;56.09;96183.28;10306089;28;20110;-30
2023/07/01 09:36:44;;;;;;;6.75;1.60;;;;;;;20.04;54.24;96181.34;10302817;28;20405;-31
2023/07/01 09:42:01;;;;;;;8.52;2.28;;;;;;;20.02;55.14;96173.75;10296581;28;20041;-31
2023/07/01 09:47:01;;;;;;;4.85;1.77;;;;;;;19.87;59.06;96173.13;10296398;28;20027;-31
2023/07/01 09:52:03;;;;;;;4.40;1.75;;;;;;;19.77;59.70;96191.91;10304563;28;20042;-30
2023/07/01 09:57:04;;;;;;;6.25;1.85;;;;;;;19.68;60.57;96176.78;10295976;28;20035;-30
2023/07/01 10:02:10;;;;;;;4.65;2.10;;;;;;;19.67;60.93;96185.28;10303251;28;20060;-30
2023/07/01 10:07:10;;;;;;;5.13;2.00;;;;;;;19.66;61.00;96191.22;10287737;28;20058;-31
2023/07/01 10:12:13;;;;;;;4.60;1.80;;;;;;;19.63;61.10;96187.00;10299147;28;20070;-30
2023/07/01 10:17:17;;;;;;;4.35;1.67;;;;;;;19.65;61.43;96186.97;10295361;28;20510;-30
2023/07/01 10:22:23;;;;;;;3.55;2.20;;;;;;;19.64;61.51;96177.69;10287500;28;20038;-31
2023/07/01 10:27:42;;;;;;;2.15;1.55;;;;;;;19.83;59.43;96181.66;10295291;28;20093;-30
2023/07/01 10:32:43;;;;;;;3.03;1.83;;;;;;;19.98;58.44;96168.72;10287753;28;20054;-30
2023/07/01 10:38:20;;;;;;;5.70;1.85;;;;;;;19.99;58.82;96168.72;10294355;28;20042;-30
2023/07/01 10:43:33;;;;;;;3.50;2.20;;;;;;;19.87;60.66;96178.22;10300587;28;20111;-31
2023/07/01 10:48:35;;;;;;;6.20;3.53;;;;;;;19.78;61.48;96169.03;10295515;28;20042;-31
2023/07/01 10:53:56;;;;;;;10.13;4.85;;;;;;;19.76;61.73;96164.84;10294624;28;20402;-31
2023/07/01 10:59:20;;;;;;;7.97;4.13;;;;;;;19.78;61.69;96163.09;10286768;28;20047;-30
2023/07/01 11:04:22;;;;;;;5.97;3.58;;;;;;;19.75;61.65;96153.00;10314886;28;20039;-30
2023/07/01 11:09:32;;;;;;;4.05;3.17;;;;;;;19.75;61.80;96158.06;10302487;28;20058;-30
2023/07/01 11:14:38;;;;;;;5.32;3.17;;;;;;;19.72;62.00;96153.03;10301818;28;20479;-31
2023/07/01 11:19:39;;;;;;;7.55;3.28;;;;;;;19.73;61.94;96149.63;10310126;28;20391;-30
2023/07/01 11:24:40;;;;;;;4.28;2.40;;;;;;;19.97;60.30;96146.72;10310123;28;20038;-30
2023/07/01 11:29:44;;;;;;;4.05;2.40;;;;;;;20.07;59.83;96143.22;10301809;28;20039;-30
2023/07/01 11:34:49;;;;;;;4.97;3.22;;;;;;;20.02;60.23;96143.25;10301894;28;20097;-30
2023/07/01 11:39:49;;;;;;;8.88;1.75;;;;;;;19.92;61.20;96145.97;10324211;28;20069;-31
2023/07/01 11:44:49;;;;;;;3.67;2.10;;;;;;;19.86;61.34;96140.97;10317464;28;20157;-30
2023/07/01 11:49:50;;;;;;;5.03;2.50;;;;;;;19.83;61.87;96141.84;10307505;28;20503;-30
2023/07/01 11:54:52;;;;;;;6.47;2.60;;;;;;;19.80;62.06;96147.00;10308138;28;20438;-30
2023/07/01 11:59:58;;;;;;;5.13;2.83;;;;;;;19.79;62.27;96135.16;10307303;28;20069;-30
2023/07/01 12:04:59;;;;;;;2.60;2.22;;;;;;;19.78;62.11;96127.53;10298756;28;20546;-30
2023/07/01 12:10:20;;;;;;;2.55;2.35;;;;;;;19.77;62.18;96124.16;10307589;28;20042;-30
2023/07/01 12:15:21;;;;;;;4.22;2.63;;;;;;;19.93;61.11;96122.25;10292430;28;20096;-30
2023/07/01 12:20:21;;;;;;;5.35;2.00;;;;;;;20.10;60.57;96125.41;10301982;28;20062;-30
2023/07/01 12:25:24;;;;;;;4.40;2.37;;;;;;;20.14;60.50;96124.47;10299561;28;20035;-30
2023/07/01 12:30:25;;;;;;;5.40;2.30;;;;;;;20.05;61.50;96117.00;10299513;28;20439;-30
2023/07/01 12:35:25;;;;;;;3.97;1.77;;;;;;;19.94;61.75;96119.66;10299376;28;20077;-30
2023/07/01 12:40:27;;;;;;;2.97;2.23;;;;;;;19.89;61.97;96115.50;10299338;28;20081;-30
2023/07/01 12:45:27;;;;;;;2.97;2.30;;;;;;;19.87;62.31;96123.19;10297394;28;20030;-30
2023/07/01 12:50:28;;;;;;;4.25;1.90;;;;;;;19.86;62.15;96120.66;10298606;28;20034;-30
2023/07/01 12:55:28;;;;;;;3.57;2.10;;;;;;;19.85;62.24;96119.78;10298770;28;20057;-31
2023/07/01 13:00:28;;;;;;;2.47;1.80;;;;;;;19.84;62.11;96122.38;10307555;28;20038;-30
2023/07/01 13:05:31;;;;;;;1.93;1.60;;;;;;;19.85;62.40;96124.06;10298497;28;20129;-30
2023/07/01 13:10:36;;;;;;;2.08;1.88;;;;;;;20.02;61.51;96111.94;10301920;28;20426;-30
2023/07/01 13:15:44;;;;;;;2.58;1.92;;;;;;;20.15;60.67;96109.22;10298482;28;20026;-30
2023/07/01 13:20:45;;;;;;;2.92;1.33;;;;;;;20.15;60.83;96108.34;10305754;28;20023;-30
2023/07/01 13:25:45;;;;;;;2.43;1.50;;;;;;;20.05;61.56;96104.28;10304693;28;20031;-30
2023/07/01 13:30:49;;;;;;;1.90;1.43;;;;;;;19.97;61.98;96101.00;10297613;28;20494;-30
2023/07/01 13:35:52;;;;;;;3.03;1.55;;;;;;;19.93;62.09;96096.84;10302447;28;20023;-30
2023/07/01 13:40:52;;;;;;;3.45;1.65;;;;;;;19.93;62.09;96102.75;10311636;28;20030;-30
2023/07/01 13:45:53;;;;;;;2.63;1.50;;;;;;;19.92;62.46;96090.09;10304836;28;20454;-30
2023/07/01 13:50:54;;;;;;;1.50;1.40;;;;;;;19.90;62.33;96084.16;10318514;28;20305;-30
2023/07/01 13:55:55;;;;;;;5.10;1.67;;;;;;;19.90;62.44;96091.78;10293959;28;20029;-30
2023/07/01 14:00:56;;;;;;;2.92;1.60;;;;;;;19.92;62.45;96074.84;10295004;28;20454;-30
2023/07/01 14:05:57;;;;;;;1.75;1.30;;;;;;;20.15;61.25;96072.78;10294763;28;20045;-31
2023/07/01 14:10:58;;;;;;;2.47;1.23;;;;;;;20.27;60.77;96067.50;10295019;28;20043;-30
2023/07/01 14:15:58;;;;;;;3.38;1.40;;;;;;;20.20;61.25;96071.84;10294189;28;20030;-31
2023/07/01 14:21:09;;;;;;;3.17;1.33;;;;;;;20.09;61.68;96063.56;10294200;28;20042;-30
2023/07/01 14:26:23;;;;;;;1.27;1.00;;;;;;;20.02;62.10;96071.28;10287175;28;20077;-30
2023/07/01 14:31:29;;;;;;;3.10;1.40;;;;;;;19.97;62.41;96073.91;10299844;28;20030;-30
2023/07/01 14:36:32;;;;;;;2.33;1.60;;;;;;;19.95;62.49;96075.63;10310177;28;20117;-30
2023/07/01 14:41:38;;;;;;;1.63;1.02;;;;;;;19.92;62.68;96069.75;10289854;28;20034;-30
2023/07/01 14:46:38;;;;;;;1.88;1.27;;;;;;;19.92;62.45;96064.69;10293218;28;20135;-30
2023/07/01 14:51:39;;;;;;;1.63;1.40;;;;;;;19.92;62.58;96069.75;10296601;28;20079;-31
2023/07/01 14:56:39;;;;;;;2.77;1.03;;;;;;;19.99;62.10;96066.22;10294797;28;20289;-30
2023/07/01 15:01:40;;;;;;;2.47;1.60;;;;;;;20.21;61.51;96062.50;10286495;28;20288;-30
2023/07/01 15:06:40;;;;;;;1.23;1.10;;;;;;;20.28;61.22;96064.09;10286529;28;20030;-31
2023/07/01 15:11:41;;;;;;;1.33;1.23;;;;;;;20.18;61.82;96057.50;10295640;28;20038;-31
2023/07/01 15:16:41;;;;;;;1.83;1.20;;;;;;;20.10;61.90;96051.69;10295831;28;20033;-30
2023/07/01 15:21:44;;;;;;;1.83;1.33;;;;;;;20.01;62.30;96051.81;10303390;28;20035;-30
2023/07/01 15:26:44;;;;;;;1.52;1.23;;;;;;;19.99;62.40;96048.44;10294336;28;20073;-30
2023/07/01 15:31:44;;;;;;;1.20;1.10;;;;;;;19.96;62.57;96062.06;10286842;28;20031;-31
2023/07/01 15:36:45;;;;;;;0.83;0.83;;;;;;;19.98;62.32;96079.81;10285987;28;20441;-30
2023/07/01 15:41:46;;;;;;;3.30;1.00;;;;;;;20.01;62.39;96078.06;10294077;28;20332;-31
2023/07/01 15:46:46;;;;;;;1.17;1.07;;;;;;;20.04;62.60;96079.72;10292621;28;20030;-31
2023/07/01 15:51:46;;;;;;;1.47;1.17;;;;;;;20.17;62.26;96073.59;10300755;28;20495;-31
2023/07/01 15:56:49;;;;;;;2.70;1.40;;;;;;;20.33;61.72;96064.84;10307497;28;20033;-31
2023/07/01 16:01:49;;;;;;;1.23;0.98;;;;;;;20.32;61.79;96070.78;10292850;28;20418;-30
2023/07/01 16:06:50;;;;;;;1.48;1.20;;;;;;;20.23;62.14;96068.41;10300028;28;20034;-30
2023/07/01 16:11:50;;;;;;;1.67;1.00;;;;;;;20.18;62.23;96071.03;10300171;28;20081;-31
2023/07/01 16:16:53;;;;;;;1.73;1.13;;;;;;;20.15;62.43;96076.16;10307441;28;20031;-31
2023/07/01 16:21:54;;;;;;;1.55;1.02;;;;;;;20.15;62.43;96068.53;10292092;28;20035;-31
2023/07/01 16:26:55;;;;;;;1.17;1.08;;;;;;;20.14;62.47;96071.09;10299623;28;20043;-31
2023/07/01 16:31:55;;;;;;;1.35;1.00;;;;;;;20.14;62.38;96066.00;10306431;28;20042;-32
2023/07/01 16:36:58;;;;;;;1.33;1.17;;;;;;;20.14;62.49;96071.09;10307905;28;20038;-31
2023/07/01 16:42:02;;;;;;;1.52;1.13;;;;;;;20.13;62.44;96070.28;10307393;28;20162;-31
2023/07/01 16:47:02;;;;;;;1.10;1.00;;;;;;;20.26;62.25;96091.25;10291780;28;20090;-31
2023/07/01 16:52:03;;;;;;;1.58;1.00;;;;;;;20.39;62.09;96083.38;10296481;28;20070;-30
2023/07/01 16:57:09;;;;;;;1.15;1.05;;;;;;;20.33;61.99;96065.69;10291470;28;20418;-30
2023/07/01 17:02:28;;;;;;;;;;;;;;;20.23;62.16;96074.34;10296370;28;20039;-30
2023/07/01 17:07:29;;;;;;;1.50;1.08;;;;;;;20.18;62.40;96075.28;10298276;28;20444;-30
2023/07/01 17:12:33;;;;;;;1.17;1.02;;;;;;;20.15;62.64;96077.84;10298598;28;20075;-30
2023/07/01 17:17:33;;;;;;;1.13;1.02;;;;;;;20.15;62.45;96088.88;10305642;28;20062;-30
2023/07/01 17:22:34;;;;;;;1.00;0.90;;;;;;;20.14;62.56;96077.03;10301329;28;20482;-31
2023/07/01 17:27:35;;;;;;;1.70;1.10;;;;;;;20.10;62.61;96074.56;10308167;28;20113;-30
2023/07/01 17:32:35;;;;;;;1.00;0.90;;;;;;;20.13;62.49;96082.13;10312351;28;20035;-31
2023/07/01 17:37:35;;;;;;;1.23;1.03;;;;;;;20.13;62.56;96088.06;10305333;28;20284;-30
2023/07/01 17:42:36;;;;;;;1.10;0.90;;;;;;;20.31;62.22;96084.34;10305304;28;20781;-30
2023/07/01 17:47:36;;;;;;;0.97;0.73;;;;;;;20.42;61.87;96079.09;10309550;28;20034;-30
2023/07/01 17:52:38;;;;;;;1.85;1.30;;;;;;;20.30;62.51;96086.09;10307414;28;20525;-30
2023/07/01 17:57:38;;;;;;;1.10;1.00;;;;;;;20.22;62.41;96079.44;10299649;28;20395;-32
2023/07/01 18:02:38;;;;;;;2.57;1.00;;;;;;;20.19;62.20;96090.47;10301004;28;20053;-31
2023/07/01 18:07:39;;;;;;;3.27;1.07;;;;;;;20.17;62.55;96091.41;10309913;28;20034;-30
2023/07/01 18:12:40;;;;;;;1.30;1.00;;;;;;;20.12;63.04;96094.03;10287691;28;20030;-30
2023/07/01 18:17:42;;;;;;;1.88;0.90;;;;;;;20.14;62.65;96093.97;10295245;28;20035;-30
2023/07/01 18:22:43;;;;;;;1.13;0.73;;;;;;;20.14;62.66;96086.34;10296757;28;20035;-30
2023/07/01 18:27:43;;;;;;;0.80;0.80;;;;;;;20.21;62.52;96083.69;10295487;28;20031;-30
2023/07/01 18:32:43;;;;;;;2.43;0.93;;;;;;;20.40;62.26;96085.88;10295806;28;20085;-30
2023/07/01 18:37:45;;;;;;;1.63;1.00;;;;;;;20.44;62.05;96094.28;10294975;28;20042;-31
2023/07/01 18:42:46;;;;;;;1.45;1.00;;;;;;;20.33;62.09;96092.81;10295323;28;20081;-30
2023/07/01 18:47:46;;;;;;;1.50;0.90;;;;;;;20.24;62.19;96086.19;10294696;28;20558;-30
2023/07/01 18:52:46;;;;;;;1.00;0.90;;;;;;;20.18;62.55;96083.72;10295334;28;20381;-31
2023/07/01 18:57:47;;;;;;;0.90;0.80;;;;;;;20.16;62.69;96094.78;10302670;28;20050;-30
2023/07/01 19:02:49;;;;;;;1.40;1.03;;;;;;;20.15;62.73;96086.34;10293203;28;20038;-31
2023/07/01 19:07:49;;;;;;;0.88;0.60;;;;;;;20.15;62.80;96093.97;10287811;28;20111;-30
2023/07/01 19:12:50;;;;;;;1.37;0.90;;;;;;;20.16;62.71;96102.41;10293624;28;20039;-30
2023/07/01 19:17:51;;;;;;;1.23;1.07;;;;;;;20.14;62.66;96104.13;10292399;28;20410;-30
2023/07/01 19:22:51;;;;;;;0.85;0.85;;;;;;;20.30;62.74;96113.19;10301099;28;20301;-31
2023/07/01 19:27:51;;;;;;;1.10;1.00;;;;;;;20.45;62.49;96103.63;10293715;28;20043;-30
2023/07/01 19:32:52;;;;;;;0.80;0.77;;;;;;;20.46;61.96;96115.47;10307523;28;20042;-30
2023/07/01 19:37:52;;;;;;;0.90;0.90;;;;;;;20.36;62.01;96125.81;10301636;28;20034;-30
2023/07/01 19:42:53;;;;;;;1.70;0.87;;;;;;;20.25;62.48;96127.69;10311783;28;20097;-30
2023/07/01 19:47:54;;;;;;;3.00;0.95;;;;;;;20.23;62.19;96132.78;10322604;28;20046;-30
2023/07/01 19:52:54;;;;;;;2.20;0.87;;;;;;;20.20;62.46;96134.53;10312339;28;20495;-30
2023/07/01 19:57:55;;;;;;;6.70;0.80;;;;;;;20.19;62.55;96145.59;10300785;28;20039;-31
2023/07/01 20:02:55;;;;;;;7.60;1.10;;;;;;;20.19;62.74;96150.66;10308952;28;20356;-30
2023/07/01 20:07:56;;;;;;;1.30;1.20;;;;;;;20.18;62.81;96161.69;10305482;28;20037;-31
2023/07/01 20:12:57;;;;;;;1.23;0.80;;;;;;;20.31;63.26;96163.16;10318086;28;20503;-30
2023/07/01 20:17:59;;;;;;;1.33;0.82;;;;;;;20.46;62.84;96162.06;10305253;28;20026;-31
2023/07/01 20:23:01;;;;;;;4.65;0.98;;;;;;;20.46;62.85;96163.78;10309107;28;20072;-30
2023/07/01 20:28:01;;;;;;;4.78;1.00;;;;;;;20.38;62.71;96168.97;10330195;28;20097;-31
2023/07/01 20:33:01;;;;;;;0.80;0.70;;;;;;;20.28;62.53;96170.84;10300282;28;20123;-30
2023/07/01 20:38:02;;;;;;;1.13;0.70;;;;;;;20.24;62.56;96171.75;10306195;28;20042;-30
2023/07/01 20:43:02;;;;;;;0.90;0.73;;;;;;;20.24;62.61;96179.38;10314631;28;20044;-31
2023/07/01 20:48:03;;;;;;;0.70;0.60;;;;;;;20.20;62.56;96175.22;10307526;28;20034;-30
2023/07/01 20:53:03;;;;;;;0.85;0.60;;;;;;;20.19;62.50;96176.09;10299852;28;20035;-30
2023/07/01 20:58:03;;;;;;;0.97;0.90;;;;;;;20.19;62.68;96171.00;10319946;28;20030;-31
2023/07/01 21:03:04;;;;;;;0.77;0.77;;;;;;;20.17;62.61;96178.63;10306450;28;20289;-31
2023/07/01 21:08:04;;;;;;;1.37;1.07;;;;;;;20.36;63.06;96184.28;10307682;28;20051;-31
2023/07/01 21:13:05;;;;;;;2.15;0.85;;;;;;;20.48;63.53;96185.75;10311824;28;20036;-30
2023/07/01 21:18:05;;;;;;;1.10;0.80;;;;;;;20.43;62.63;96187.53;10309300;28;20038;-30
2023/07/01 21:23:05;;;;;;;1.70;0.80;;;;;;;20.38;63.02;96187.63;10311443;28;20348;-31
2023/07/01 21:28:07;;;;;;;2.38;0.70;;;;;;;20.30;62.66;96190.31;10300621;28;20039;-30
2023/07/01 21:33:10;;;;;;;0.82;0.55;;;;;;;20.27;62.83;96199.69;10306018;28;20070;-31
2023/07/01 21:38:11;;;;;;;0.70;0.70;;;;;;;20.22;62.71;96199.75;10314420;28;20065;-31
2023/07/01 21:43:23;;;;;;;2.88;0.95;;;;;;;20.23;62.83;96205.66;10342207;28;20034;-31
2023/07/01 21:48:25;;;;;;;2.25;0.70;;;;;;;20.20;62.91;96213.34;10313693;28;20157;-30
2023/07/01 21:53:38;;;;;;;0.60;0.60;;;;;;;20.21;62.80;96192.13;10308965;28;20037;-31
2023/07/01 21:58:50;;;;;;;3.63;1.00;;;;;;;20.23;63.25;96198.88;10304360;28;20038;-31
2023/07/01 22:03:55;;;;;;;1.05;0.80;;;;;;;20.46;63.44;96200.19;10304342;28;20038;-30
2023/07/01 22:08:57;;;;;;;3.00;0.85;;;;;;;20.55;63.15;96197.50;10303682;28;20193;-31
2023/07/01 22:13:58;;;;;;;0.80;0.68;;;;;;;20.46;62.65;96201.91;10308510;28;20031;-30
2023/07/01 22:18:58;;;;;;;1.23;0.55;;;;;;;20.33;62.55;96202.13;10292235;28;20494;-29
2023/07/01 22:24:00;;;;;;;0.90;0.67;;;;;;;20.28;62.64;96201.34;10311685;28;20099;-30
2023/07/01 22:29:01;;;;;;;2.75;0.55;;;;;;;20.24;62.56;96204.78;10309753;28;20321;-32
2023/07/01 22:34:01;;;;;;;0.60;0.60;;;;;;;20.23;62.62;96200.56;10293103;28;20129;-30
2023/07/01 22:39:01;;;;;;;0.60;0.60;;;;;;;20.21;62.76;96195.53;10310321;28;20046;-31
2023/07/01 22:44:02;;;;;;;0.80;0.70;;;;;;;20.18;62.69;96189.66;10288147;28;20039;-31
2023/07/01 22:49:02;;;;;;;1.58;0.47;;;;;;;20.21;62.50;96194.69;10286512;28;20419;-30
2023/07/01 22:54:02;;;;;;;3.10;0.93;;;;;;;20.30;63.27;96197.94;10293304;28;20038;-31
2023/07/01 22:59:03;;;;;;;0.87;0.70;;;;;;;20.51;63.40;96198.44;10306385;28;20418;-30
2023/07/01 23:04:03;;;;;;;1.50;0.70;;;;;;;20.53;63.04;96203.47;10302965;28;20039;-31
2023/07/01 23:09:04;;;;;;;1.10;0.70;;;;;;;20.42;62.69;96203.66;10310119;28;20043;-31
2023/07/01 23:14:04;;;;;;;0.90;0.67;;;;;;;20.31;62.56;96198.75;10300145;28;20042;-31
2023/07/01 23:19:07;;;;;;;1.10;0.60;;;;;;;20.27;62.51;96194.59;10302750;28;20129;-31
2023/07/01 23:24:07;;;;;;;1.00;0.82;;;;;;;20.26;62.53;96198.00;10309563;28;20299;-30